sensor_id;sensor_type;location;lat;lon;timestamp;pressure;altitude;pressure_sealevel;temperature;humidity
14818;BME280;7500;57.698;11.986;2023-01-30T00:01:34;99429.56;;;7.70;100.00
14818;BME280;7500;57.698;11.986;2023-01-30T00:04:03;99424.41;;;7.68;100.00
14818;BME280;7500;57.698;11.986;2023-01-30T00:06:30;99443.44;;;7.58;100.00
14818;BME280;7500;57.698;11.986;2023-01-30T00:08:57;99426.16;;;7.54;100.00
14818;BME280;7500;57.698;11.986;2023-01-30T00:11:24;99405.53;;;7.48;100.00
14818;BME280;7500;57.698;11.986;2023-01-30T00:13:53;99401.97;;;7.49;100.00
14818;BME280;7500;57.698;11.986;2023-01-30T00:16:20;99390.63;;;7.48;100.00
14818;BME280;7500;57.698;11.986;2023-01-30T00:18:46;99397.09;;;7.43;100.00
14818;BME280;7500;57.698;11.986;2023-01-30T00:21:15;99409.44;;;7.27;100.00
14818;BME280;7500;57.698;11.986;2023-01-30T00:23:42;99404.22;;;7.41;100.00
14818;BME280;7500;57.698;11.986;2023-01-30T00:26:10;99393.63;;;7.42;100.00
14818;BME280;7500;57.698;11.986;2023-01-30T00:28:37;99402.53;;;7.40;100.00
14818;BME280;7500;57.698;11.986;2023-01-30T00:31:05;99382.84;;;7.33;100.00
14818;BME280;7500;57.698;11.986;2023-01-30T00:33:32;99397.25;;;7.26;100.00
14818;BME280;7500;57.698;11.986;2023-01-30T00:36:00;99395.56;;;7.25;100.00
14818;BME280;7500;57.698;11.986;2023-01-30T00:38:28;99398.47;;;7.20;100.00
14818;BME280;7500;57.698;11.986;2023-01-30T00:40:55;99398.25;;;7.67;100.00
14818;BME280;7500;57.698;11.986;2023-01-30T00:43:22;99377.72;;;7.59;100.00
14818;BME280;7500;57.698;11.986;2023-01-30T00:46:12;99368.97;;;7.45;100.00
14818;BME280;7500;57.698;11.986;2023-01-30T00:48:57;99380.38;;;7.30;100.00
14818;BME280;7500;57.698;11.986;2023-01-30T00:51:24;99382.31;;;7.12;100.00
14818;BME280;7500;57.698;11.986;2023-01-30T00:53:53;99357.28;;;7.07;100.00
14818;BME280;7500;57.698;11.986;2023-01-30T00:56:20;99355.59;;;7.06;100.00
14818;BME280;7500;57.698;11.986;2023-01-30T00:58:46;99365.34;;;7.18;100.00
14818;BME280;7500;57.698;11.986;2023-01-30T01:01:13;99365.34;;;7.18;100.00
14818;BME280;7500;57.698;11.986;2023-01-30T01:03:40;99365.94;;;7.09;100.00
14818;BME280;7500;57.698;11.986;2023-01-30T01:06:07;99367.22;;;7.16;100.00
14818;BME280;7500;57.698;11.986;2023-01-30T01:08:34;99363.03;;;7.13;100.00
14818;BME280;7500;57.698;11.986;2023-01-30T01:11:02;99358.25;;;7.20;100.00
14818;BME280;7500;57.698;11.986;2023-01-30T01:13:29;99369.84;;;7.16;100.00
14818;BME280;7500;57.698;11.986;2023-01-30T01:15:56;99350.19;;;7.09;100.00
14818;BME280;7500;57.698;11.986;2023-01-30T01:18:23;99353.16;;;7.17;100.00
14818;BME280;7500;57.698;11.986;2023-01-30T01:20:50;99351.47;;;7.16;100.00
14818;BME280;7500;57.698;11.986;2023-01-30T01:23:17;99355.03;;;7.15;100.00
14818;BME280;7500;57.698;11.986;2023-01-30T01:25:44;99341.38;;;7.10;100.00
14818;BME280;7500;57.698;11.986;2023-01-30T01:28:12;99349.06;;;7.13;100.00
14818;BME280;7500;57.698;11.986;2023-01-30T01:30:40;99340.63;;;7.08;100.00
14818;BME280;7500;57.698;11.986;2023-01-30T01:33:07;99345.88;;;7.08;100.00
14818;BME280;7500;57.698;11.986;2023-01-30T01:35:33;99350.94;;;7.11;100.00
14818;BME280;7500;57.698;11.986;2023-01-30T01:38:00;99339.88;;;7.06;100.00
14818;BME280;7500;57.698;11.986;2023-01-30T01:40:27;99338.75;;;7.10;100.00
14818;BME280;7500;57.698;11.986;2023-01-30T01:43:17;99342.50;;;7.06;100.00
14818;BME280;7500;57.698;11.986;2023-01-30T01:45:47;99335.56;;;7.05;100.00
14818;BME280;7500;57.698;11.986;2023-01-30T01:48:19;99317.50;;;6.85;100.00
14818;BME280;7500;57.698;11.986;2023-01-30T01:50:51;99329.56;;;7.03;100.00
14818;BME280;7500;57.698;11.986;2023-01-30T01:53:22;99337.25;;;7.06;100.00
14818;BME280;7500;57.698;11.986;2023-01-30T01:55:53;99336.84;;;6.98;100.00
14818;BME280;7500;57.698;11.986;2023-01-30T01:58:26;99332.25;;;7.01;100.00
14818;BME280;7500;57.698;11.986;2023-01-30T02:00:57;99345.75;;;6.95;100.00
14818;BME280;7500;57.698;11.986;2023-01-30T02:03:27;99330.47;;;7.02;100.00
14818;BME280;7500;57.698;11.986;2023-01-30T02:05:58;99323.84;;;6.96;100.00
14818;BME280;7500;57.698;11.986;2023-01-30T02:08:29;99325.31;;;7.00;100.00
14818;BME280;7500;57.698;11.986;2023-01-30T02:11:01;99297.38;;;6.85;100.00
14818;BME280;7500;57.698;11.986;2023-01-30T02:13:30;99305.53;;;6.95;100.00
14818;BME280;7500;57.698;11.986;2023-01-30T02:15:59;99303.66;;;6.97;100.00
14818;BME280;7500;57.698;11.986;2023-01-30T02:18:27;99299.34;;;6.96;100.00
14818;BME280;7500;57.698;11.986;2023-01-30T02:27:19;99292.72;;;6.90;100.00
14818;BME280;7500;57.698;11.986;2023-01-30T02:30:15;99297.84;;;6.92;100.00
14818;BME280;7500;57.698;11.986;2023-01-30T02:32:55;99296.44;;;6.86;100.00
14818;BME280;7500;57.698;11.986;2023-01-30T02:35:32;99286.59;;;6.90;100.00
14818;BME280;7500;57.698;11.986;2023-01-30T02:38:11;99304.78;;;6.93;100.00
14818;BME280;7500;57.698;11.986;2023-01-30T02:40:51;99296.16;;;6.91;100.00
14818;BME280;7500;57.698;11.986;2023-01-30T02:43:29;99295.03;;;6.95;100.00
14818;BME280;7500;57.698;11.986;2023-01-30T02:46:01;99287.94;;;6.97;100.00
14818;BME280;7500;57.698;11.986;2023-01-30T02:48:36;99282.28;;;6.89;100.00
14818;BME280;7500;57.698;11.986;2023-01-30T02:51:09;99288.13;;;6.94;100.00
14818;BME280;7500;57.698;11.986;2023-01-30T02:53:38;99281.84;;;6.96;100.00
14818;BME280;7500;57.698;11.986;2023-01-30T02:56:05;99293.47;;;6.92;100.00
14818;BME280;7500;57.698;11.986;2023-01-30T02:58:35;99255.03;;;6.77;100.00
14818;BME280;7500;57.698;11.986;2023-01-30T03:01:24;99283.34;;;7.00;100.00
14818;BME280;7500;57.698;11.986;2023-01-30T03:07:04;99288.78;;;7.11;100.00
14818;BME280;7500;57.698;11.986;2023-01-30T03:09:42;99282.91;;;7.08;100.00
14818;BME280;7500;57.698;11.986;2023-01-30T03:12:17;99279.53;;;7.06;100.00
14818;BME280;7500;57.698;11.986;2023-01-30T03:14:51;99282.03;;;6.93;100.00
14818;BME280;7500;57.698;11.986;2023-01-30T03:17:22;99292.06;;;7.01;100.00
14818;BME280;7500;57.698;11.986;2023-01-30T03:19:54;99289.81;;;6.95;100.00
14818;BME280;7500;57.698;11.986;2023-01-30T03:22:21;99281.00;;;6.96;100.00
14818;BME280;7500;57.698;11.986;2023-01-30T03:24:49;99281.94;;;6.95;100.00
14818;BME280;7500;57.698;11.986;2023-01-30T03:27:18;99269.19;;;6.89;100.00
14818;BME280;7500;57.698;11.986;2023-01-30T03:29:45;99271.91;;;7.01;100.00
14818;BME280;7500;57.698;11.986;2023-01-30T03:32:12;99250.84;;;7.03;100.00
14818;BME280;7500;57.698;11.986;2023-01-30T03:34:39;99267.41;;;7.03;100.00
14818;BME280;7500;57.698;11.986;2023-01-30T03:37:07;99263.22;;;7.01;100.00
14818;BME280;7500;57.698;11.986;2023-01-30T03:39:35;99249.72;;;7.07;100.00
14818;BME280;7500;57.698;11.986;2023-01-30T03:42:02;99261.03;;;7.07;100.00
14818;BME280;7500;57.698;11.986;2023-01-30T03:44:29;99263.22;;;7.01;100.00
14818;BME280;7500;57.698;11.986;2023-01-30T03:46:56;99247.47;;;7.01;100.00
14818;BME280;7500;57.698;11.986;2023-01-30T03:49:22;99255.72;;;7.09;100.00
14818;BME280;7500;57.698;11.986;2023-01-30T03:51:49;99252.81;;;7.13;100.00
14818;BME280;7500;57.698;11.986;2023-01-30T03:54:18;99187.31;;;6.70;100.00
14818;BME280;7500;57.698;11.986;2023-01-30T03:56:45;99236.22;;;7.13;100.00
14818;BME280;7500;57.698;11.986;2023-01-30T03:59:12;99240.25;;;7.04;100.00
14818;BME280;7500;57.698;11.986;2023-01-30T04:01:39;99229.94;;;7.15;100.00
14818;BME280;7500;57.698;11.986;2023-01-30T04:04:06;99230.78;;;7.16;100.00
14818;BME280;7500;57.698;11.986;2023-01-30T04:06:33;99217.66;;;7.16;100.00
14818;BME280;7500;57.698;11.986;2023-01-30T04:08:59;99218.22;;;7.21;100.00
14818;BME280;7500;57.698;11.986;2023-01-30T04:11:28;99222.63;;;7.20;100.00
14818;BME280;7500;57.698;11.986;2023-01-30T04:13:55;99209.03;;;7.14;100.00
14818;BME280;7500;57.698;11.986;2023-01-30T04:16:23;99203.69;;;7.15;100.00
14818;BME280;7500;57.698;11.986;2023-01-30T04:18:50;99195.75;;;7.03;100.00
14818;BME280;7500;57.698;11.986;2023-01-30T04:21:18;99189.94;;;6.98;100.00
14818;BME280;7500;57.698;11.986;2023-01-30T04:23:45;99177.19;;;6.92;100.00
14818;BME280;7500;57.698;11.986;2023-01-30T04:26:12;99174.19;;;6.84;100.00
14818;BME280;7500;57.698;11.986;2023-01-30T04:28:41;99174.94;;;6.86;100.00
14818;BME280;7500;57.698;11.986;2023-01-30T04:31:08;99175.13;;;6.83;100.00
14818;BME280;7500;57.698;11.986;2023-01-30T04:33:36;99171.75;;;6.81;100.00
14818;BME280;7500;57.698;11.986;2023-01-30T04:36:05;99167.72;;;6.75;100.00
14818;BME280;7500;57.698;11.986;2023-01-30T04:38:33;99180.09;;;6.73;100.00
14818;BME280;7500;57.698;11.986;2023-01-30T04:41:00;99192.72;;;6.67;100.00
14818;BME280;7500;57.698;11.986;2023-01-30T04:43:28;99201.34;;;6.69;100.00
14818;BME280;7500;57.698;11.986;2023-01-30T04:45:57;99185.63;;;6.69;100.00
14818;BME280;7500;57.698;11.986;2023-01-30T04:48:24;99185.06;;;6.78;100.00
14818;BME280;7500;57.698;11.986;2023-01-30T04:50:53;99180.28;;;6.84;100.00
14818;BME280;7500;57.698;11.986;2023-01-30T04:53:20;99159.94;;;6.88;100.00
14818;BME280;7500;57.698;11.986;2023-01-30T04:55:48;99164.25;;;6.89;100.00
14818;BME280;7500;57.698;11.986;2023-01-30T04:58:16;99169.50;;;6.89;100.00
14818;BME280;7500;57.698;11.986;2023-01-30T05:00:43;99157.44;;;6.86;100.00
14818;BME280;7500;57.698;11.986;2023-01-30T05:03:12;99168.19;;;6.82;100.00
14818;BME280;7500;57.698;11.986;2023-01-30T05:05:39;99164.44;;;6.86;100.00
14818;BME280;7500;57.698;11.986;2023-01-30T05:08:06;99159.75;;;6.91;100.00
14818;BME280;7500;57.698;11.986;2023-01-30T05:10:33;99150.22;;;6.90;100.00
14818;BME280;7500;57.698;11.986;2023-01-30T05:13:04;99152.56;;;6.94;100.00
14818;BME280;7500;57.698;11.986;2023-01-30T05:15:31;99160.31;;;6.96;100.00
14818;BME280;7500;57.698;11.986;2023-01-30T05:17:59;99159.00;;;6.89;100.00
14818;BME280;7500;57.698;11.986;2023-01-30T05:20:27;99155.94;;;6.82;100.00
14818;BME280;7500;57.698;11.986;2023-01-30T05:22:54;99145.16;;;6.87;100.00
14818;BME280;7500;57.698;11.986;2023-01-30T05:25:21;99140.47;;;6.92;100.00
14818;BME280;7500;57.698;11.986;2023-01-30T05:27:48;99115.84;;;6.80;100.00
14818;BME280;7500;57.698;11.986;2023-01-30T05:30:15;99144.13;;;6.89;100.00
14818;BME280;7500;57.698;11.986;2023-01-30T05:32:42;99135.31;;;6.90;100.00
14818;BME280;7500;57.698;11.986;2023-01-30T05:35:09;99143.84;;;6.94;100.00
14818;BME280;7500;57.698;11.986;2023-01-30T05:37:38;99128.66;;;6.99;100.00
14818;BME280;7500;57.698;11.986;2023-01-30T05:40:06;99140.56;;;6.90;100.00
14818;BME280;7500;57.698;11.986;2023-01-30T05:42:33;99135.66;;;6.98;100.00
14818;BME280;7500;57.698;11.986;2023-01-30T05:45:00;99123.41;;;6.99;100.00
14818;BME280;7500;57.698;11.986;2023-01-30T05:47:27;99157.88;;;7.07;100.00
14818;BME280;7500;57.698;11.986;2023-01-30T05:49:53;99127.91;;;7.37;100.00
14818;BME280;7500;57.698;11.986;2023-01-30T05:52:20;99127.50;;;7.57;100.00
14818;BME280;7500;57.698;11.986;2023-01-30T05:54:48;99139.81;;;7.69;100.00
14818;BME280;7500;57.698;11.986;2023-01-30T05:57:15;99148.84;;;7.25;100.00
14818;BME280;7500;57.698;11.986;2023-01-30T05:59:42;99142.53;;;7.01;100.00
14818;BME280;7500;57.698;11.986;2023-01-30T06:02:09;99139.03;;;7.00;100.00
14818;BME280;7500;57.698;11.986;2023-01-30T06:04:36;99132.34;;;6.96;100.00
14818;BME280;7500;57.698;11.986;2023-01-30T06:07:03;99135.78;;;6.97;100.00
14818;BME280;7500;57.698;11.986;2023-01-30T06:09:30;99132.78;;;7.03;100.00
14818;BME280;7500;57.698;11.986;2023-01-30T06:11:58;99132.22;;;6.98;100.00
14818;BME280;7500;57.698;11.986;2023-01-30T06:14:25;99133.91;;;6.99;100.00
14818;BME280;7500;57.698;11.986;2023-01-30T06:16:52;99131.91;;;7.02;100.00
14818;BME280;7500;57.698;11.986;2023-01-30T06:19:19;99111.44;;;6.81;100.00
14818;BME280;7500;57.698;11.986;2023-01-30T06:21:45;99139.91;;;6.87;100.00
14818;BME280;7500;57.698;11.986;2023-01-30T06:24:12;99148.88;;;6.83;100.00
14818;BME280;7500;57.698;11.986;2023-01-30T06:26:39;99141.59;;;6.88;100.00
14818;BME280;7500;57.698;11.986;2023-01-30T06:29:07;99130.66;;;6.81;100.00
14818;BME280;7500;57.698;11.986;2023-01-30T06:31:34;99126.22;;;6.82;100.00
14818;BME280;7500;57.698;11.986;2023-01-30T06:34:01;99127.53;;;6.89;100.00
14818;BME280;7500;57.698;11.986;2023-01-30T06:36:28;99122.28;;;6.89;100.00
14818;BME280;7500;57.698;11.986;2023-01-30T06:38:55;99118.16;;;6.85;100.00
14818;BME280;7500;57.698;11.986;2023-01-30T06:41:22;99113.78;;;6.85;100.00
14818;BME280;7500;57.698;11.986;2023-01-30T06:43:48;99110.03;;;6.89;100.00
14818;BME280;7500;57.698;11.986;2023-01-30T06:46:17;99110.97;;;6.88;100.00
14818;BME280;7500;57.698;11.986;2023-01-30T06:48:43;99112.91;;;6.99;100.00
14818;BME280;7500;57.698;11.986;2023-01-30T06:51:10;99104.41;;;6.95;100.00
14818;BME280;7500;57.698;11.986;2023-01-30T06:53:37;99094.56;;;6.85;100.00
14818;BME280;7500;57.698;11.986;2023-01-30T06:56:04;99118.63;;;7.05;100.00
14818;BME280;7500;57.698;11.986;2023-01-30T06:58:31;99113.84;;;7.12;100.00
14818;BME280;7500;57.698;11.986;2023-01-30T07:00:58;99110.84;;;7.04;100.00
14818;BME280;7500;57.698;11.986;2023-01-30T07:03:27;99104.28;;;7.11;100.00
14818;BME280;7500;57.698;11.986;2023-01-30T07:05:54;99117.31;;;7.12;100.00
14818;BME280;7500;57.698;11.986;2023-01-30T07:08:21;99111.41;;;7.09;100.00
14818;BME280;7500;57.698;11.986;2023-01-30T07:10:48;99095.13;;;7.04;100.00
14818;BME280;7500;57.698;11.986;2023-01-30T07:13:15;99097.16;;;7.13;100.00
14818;BME280;7500;57.698;11.986;2023-01-30T07:15:43;99091.25;;;7.09;100.00
14818;BME280;7500;57.698;11.986;2023-01-30T07:18:10;99088.25;;;7.15;100.00
14818;BME280;7500;57.698;11.986;2023-01-30T07:20:38;99106.50;;;7.17;100.00
14818;BME280;7500;57.698;11.986;2023-01-30T07:23:06;99109.63;;;7.09;100.00
14818;BME280;7500;57.698;11.986;2023-01-30T07:25:33;99111.94;;;7.14;100.00
14818;BME280;7500;57.698;11.986;2023-01-30T07:28:01;99110.56;;;7.08;100.00
14818;BME280;7500;57.698;11.986;2023-01-30T07:30:30;99117.78;;;7.05;100.00
14818;BME280;7500;57.698;11.986;2023-01-30T07:32:58;99125.75;;;7.03;100.00
14818;BME280;7500;57.698;11.986;2023-01-30T07:35:27;99125.19;;;6.98;100.00
14818;BME280;7500;57.698;11.986;2023-01-30T07:37:56;99109.66;;;6.95;100.00
14818;BME280;7500;57.698;11.986;2023-01-30T07:40:23;99119.41;;;6.93;100.00
14818;BME280;7500;57.698;11.986;2023-01-30T07:42:57;99114.41;;;6.89;100.00
14818;BME280;7500;57.698;11.986;2023-01-30T07:45:26;99117.03;;;6.89;100.00
14818;BME280;7500;57.698;11.986;2023-01-30T07:47:54;99110.59;;;6.80;100.00
14818;BME280;7500;57.698;11.986;2023-01-30T07:50:21;99108.53;;;6.85;100.00
14818;BME280;7500;57.698;11.986;2023-01-30T07:52:47;99115.94;;;6.79;100.00
14818;BME280;7500;57.698;11.986;2023-01-30T07:55:16;99091.22;;;6.55;100.00
14818;BME280;7500;57.698;11.986;2023-01-30T07:57:43;99118.28;;;6.83;100.00
14818;BME280;7500;57.698;11.986;2023-01-30T08:00:10;99130.16;;;6.89;100.00
14818;BME280;7500;57.698;11.986;2023-01-30T08:02:38;99122.84;;;6.94;100.00
14818;BME280;7500;57.698;11.986;2023-01-30T08:05:05;99132.34;;;6.96;100.00
14818;BME280;7500;57.698;11.986;2023-01-30T08:07:32;99112.50;;;7.19;100.00
14818;BME280;7500;57.698;11.986;2023-01-30T08:09:59;99131.53;;;7.49;100.00
14818;BME280;7500;57.698;11.986;2023-01-30T08:12:27;99115.53;;;7.66;100.00
14818;BME280;7500;57.698;11.986;2023-01-30T08:14:54;99119.97;;;7.39;100.00
14818;BME280;7500;57.698;11.986;2023-01-30T08:17:21;99120.50;;;7.03;100.00
14818;BME280;7500;57.698;11.986;2023-01-30T08:19:48;99132.47;;;7.07;100.00
14818;BME280;7500;57.698;11.986;2023-01-30T08:22:15;99130.91;;;7.05;100.00
14818;BME280;7500;57.698;11.986;2023-01-30T08:24:42;99130.34;;;7.00;100.00
14818;BME280;7500;57.698;11.986;2023-01-30T08:27:09;99126.22;;;6.96;100.00
14818;BME280;7500;57.698;11.986;2023-01-30T08:29:37;99125.28;;;6.97;100.00
14818;BME280;7500;57.698;11.986;2023-01-30T08:32:04;99127.72;;;7.00;100.00
14818;BME280;7500;57.698;11.986;2023-01-30T08:34:31;99143.34;;;7.01;100.00
14818;BME280;7500;57.698;11.986;2023-01-30T08:36:58;99133.91;;;6.99;100.00
14818;BME280;7500;57.698;11.986;2023-01-30T08:39:25;99126.59;;;7.04;100.00
14818;BME280;7500;57.698;11.986;2023-01-30T08:41:52;99133.59;;;7.17;100.00
14818;BME280;7500;57.698;11.986;2023-01-30T08:44:19;99136.41;;;7.28;100.00
14818;BME280;7500;57.698;11.986;2023-01-30T08:46:47;99131.34;;;7.25;100.00
14818;BME280;7500;57.698;11.986;2023-01-30T08:49:14;99141.66;;;7.28;100.00
14818;BME280;7500;57.698;11.986;2023-01-30T08:51:41;99149.09;;;7.34;100.00
14818;BME280;7500;57.698;11.986;2023-01-30T08:54:08;99151.34;;;7.40;100.00
14818;BME280;7500;57.698;11.986;2023-01-30T08:56:35;99147.91;;;7.40;100.00
14818;BME280;7500;57.698;11.986;2023-01-30T08:59:01;99145.47;;;7.37;100.00
14818;BME280;7500;57.698;11.986;2023-01-30T09:01:28;99146.56;;;7.47;100.00
14818;BME280;7500;57.698;11.986;2023-01-30T09:03:57;99135.75;;;7.51;100.00
14818;BME280;7500;57.698;11.986;2023-01-30T09:06:24;99113.03;;;7.38;100.00
14818;BME280;7500;57.698;11.986;2023-01-30T09:08:50;99140.25;;;7.49;100.00
14818;BME280;7500;57.698;11.986;2023-01-30T09:11:17;99147.09;;;7.52;100.00
14818;BME280;7500;57.698;11.986;2023-01-30T09:13:44;99147.22;;;7.50;100.00
14818;BME280;7500;57.698;11.986;2023-01-30T09:16:11;99145.00;;;7.57;100.00
14818;BME280;7500;57.698;11.986;2023-01-30T09:18:39;99155.72;;;7.54;100.00
14818;BME280;7500;57.698;11.986;2023-01-30T09:21:08;99145.09;;;7.43;100.00
14818;BME280;7500;57.698;11.986;2023-01-30T09:23:36;99144.41;;;7.39;100.00
14818;BME280;7500;57.698;11.986;2023-01-30T09:26:03;99135.59;;;7.40;100.00
14818;BME280;7500;57.698;11.986;2023-01-30T09:28:30;99136.47;;;7.41;100.00
14818;BME280;7500;57.698;11.986;2023-01-30T09:30:58;99134.28;;;7.33;100.00
14818;BME280;7500;57.698;11.986;2023-01-30T09:33:25;99147.16;;;7.38;100.00
14818;BME280;7500;57.698;11.986;2023-01-30T09:35:52;99146.66;;;7.45;100.00
14818;BME280;7500;57.698;11.986;2023-01-30T09:38:21;99151.72;;;7.48;100.00
14818;BME280;7500;57.698;11.986;2023-01-30T09:40:55;99157.72;;;7.50;100.00
14818;BME280;7500;57.698;11.986;2023-01-30T09:43:43;99155.16;;;7.49;100.00
14818;BME280;7500;57.698;11.986;2023-01-30T09:46:20;99166.41;;;7.51;100.00
14818;BME280;7500;57.698;11.986;2023-01-30T09:48:59;99170.53;;;7.55;100.00
14818;BME280;7500;57.698;11.986;2023-01-30T09:51:52;99157.56;;;7.66;100.00
14818;BME280;7500;57.698;11.986;2023-01-30T09:54:27;99154.19;;;7.64;100.00
14818;BME280;7500;57.698;11.986;2023-01-30T09:57:09;99152.47;;;7.77;100.00
14818;BME280;7500;57.698;11.986;2023-01-30T09:59:46;99146.75;;;7.70;100.00
14818;BME280;7500;57.698;11.986;2023-01-30T10:02:34;99152.91;;;7.57;100.00
14818;BME280;7500;57.698;11.986;2023-01-30T10:05:03;99149.31;;;7.58;100.00
14818;BME280;7500;57.698;11.986;2023-01-30T10:10:33;99159.22;;;7.40;100.00
14818;BME280;7500;57.698;11.986;2023-01-30T10:13:10;99169.44;;;7.45;100.00
14818;BME280;7500;57.698;11.986;2023-01-30T10:15:47;99185.94;;;7.47;100.00
14818;BME280;7500;57.698;11.986;2023-01-30T10:18:36;99190.03;;;7.51;100.00
14818;BME280;7500;57.698;11.986;2023-01-30T10:21:16;99190.22;;;7.48;100.00
14818;BME280;7500;57.698;11.986;2023-01-30T10:23:55;99195.72;;;7.45;100.00
14818;BME280;7500;57.698;11.986;2023-01-30T10:26:26;99200.00;;;7.46;100.00
14818;BME280;7500;57.698;11.986;2023-01-30T10:28:57;99188.56;;;7.47;100.00
14818;BME280;7500;57.698;11.986;2023-01-30T10:31:29;99176.38;;;7.46;100.00
14818;BME280;7500;57.698;11.986;2023-01-30T10:34:00;99173.03;;;7.44;100.00
14818;BME280;7500;57.698;11.986;2023-01-30T10:36:35;99181.91;;;7.41;100.00
14818;BME280;7500;57.698;11.986;2023-01-30T10:39:16;99188.56;;;7.47;100.00
14818;BME280;7500;57.698;11.986;2023-01-30T10:41:52;99194.47;;;7.36;100.00
14818;BME280;7500;57.698;11.986;2023-01-30T10:44:22;99205.28;;;7.32;100.00
14818;BME280;7500;57.698;11.986;2023-01-30T10:46:59;99203.22;;;7.37;100.00
14818;BME280;7500;57.698;11.986;2023-01-30T10:49:38;99211.72;;;7.40;100.00
14818;BME280;7500;57.698;11.986;2023-01-30T10:52:17;99230.22;;;7.39;100.00
14818;BME280;7500;57.698;11.986;2023-01-30T10:54:57;99205.66;;;7.26;100.00
14818;BME280;7500;57.698;11.986;2023-01-30T10:57:42;99225.72;;;7.41;100.00
14818;BME280;7500;57.698;11.986;2023-01-30T11:00:18;99242.84;;;7.46;100.00
14818;BME280;7500;57.698;11.986;2023-01-30T11:03:02;99228.97;;;7.44;100.00
14818;BME280;7500;57.698;11.986;2023-01-30T11:05:40;99236.78;;;7.46;100.00
14818;BME280;7500;57.698;11.986;2023-01-30T11:08:18;99233.53;;;7.55;100.00
14818;BME280;7500;57.698;11.986;2023-01-30T11:10:45;99231.28;;;7.63;100.00
14818;BME280;7500;57.698;11.986;2023-01-30T11:13:16;99238.59;;;7.58;100.00
14818;BME280;7500;57.698;11.986;2023-01-30T11:15:45;99220.09;;;7.47;100.00
14818;BME280;7500;57.698;11.986;2023-01-30T11:18:13;99244.53;;;7.61;100.00
14818;BME280;7500;57.698;11.986;2023-01-30T11:20:42;99215.03;;;7.44;100.00
14818;BME280;7500;57.698;11.986;2023-01-30T11:23:23;99242.53;;;7.65;100.00
14818;BME280;7500;57.698;11.986;2023-01-30T11:25:53;99238.59;;;7.58;100.00
14818;BME280;7500;57.698;11.986;2023-01-30T11:28:22;99244.34;;;7.64;100.00
14818;BME280;7500;57.698;11.986;2023-01-30T11:30:52;99235.22;;;7.56;100.00
14818;BME280;7500;57.698;11.986;2023-01-30T11:33:22;99245.16;;;7.65;100.00
14818;BME280;7500;57.698;11.986;2023-01-30T11:35:54;99238.88;;;7.67;100.00
14818;BME280;7500;57.698;11.986;2023-01-30T11:38:23;99250.88;;;7.71;100.00
14818;BME280;7500;57.698;11.986;2023-01-30T11:41:01;99251.47;;;7.62;100.00
14818;BME280;7500;57.698;11.986;2023-01-30T11:43:31;99261.38;;;7.71;100.00
14818;BME280;7500;57.698;11.986;2023-01-30T11:45:59;99250.41;;;7.65;100.00
14818;BME280;7500;57.698;11.986;2023-01-30T11:48:29;99258.00;;;7.69;100.00
14818;BME280;7500;57.698;11.986;2023-01-30T11:50:59;99255.84;;;7.76;100.00
14818;BME280;7500;57.698;11.986;2023-01-30T11:53:33;99253.84;;;7.79;100.00
14818;BME280;7500;57.698;11.986;2023-01-30T11:56:08;99260.06;;;7.78;100.00
14818;BME280;7500;57.698;11.986;2023-01-30T11:58:38;99269.53;;;7.81;100.00
14818;BME280;7500;57.698;11.986;2023-01-30T12:01:08;99245.56;;;7.59;100.00
14818;BME280;7500;57.698;11.986;2023-01-30T12:03:43;99291.50;;;7.80;100.00
14818;BME280;7500;57.698;11.986;2023-01-30T12:06:10;99284.56;;;7.79;100.00
14818;BME280;7500;57.698;11.986;2023-01-30T12:08:41;99290.75;;;7.78;100.00
14818;BME280;7500;57.698;11.986;2023-01-30T12:11:27;99296.38;;;7.72;100.00
14818;BME280;7500;57.698;11.986;2023-01-30T12:14:03;99313.81;;;7.73;100.00
14818;BME280;7500;57.698;11.986;2023-01-30T12:16:45;99293.94;;;7.69;100.00
14818;BME280;7500;57.698;11.986;2023-01-30T12:19:25;99306.03;;;7.71;100.00
14818;BME280;7500;57.698;11.986;2023-01-30T12:21:59;99300.97;;;7.68;100.00
14818;BME280;7500;57.698;11.986;2023-01-30T12:24:31;99297.41;;;7.69;100.00
14818;BME280;7500;57.698;11.986;2023-01-30T12:27:03;99301.81;;;7.69;100.00
14818;BME280;7500;57.698;11.986;2023-01-30T12:29:39;99305.75;;;7.76;100.00
14818;BME280;7500;57.698;11.986;2023-01-30T12:32:13;99312.03;;;7.73;100.00
14818;BME280;7500;57.698;11.986;2023-01-30T12:34:40;99301.53;;;7.73;100.00
14818;BME280;7500;57.698;11.986;2023-01-30T12:37:24;99294.75;;;7.83;100.00
14818;BME280;7500;57.698;11.986;2023-01-30T12:40:03;99298.22;;;7.83;100.00
14818;BME280;7500;57.698;11.986;2023-01-30T12:42:53;99309.66;;;7.82;100.00
14818;BME280;7500;57.698;11.986;2023-01-30T12:45:29;99318.28;;;7.84;100.00
14818;BME280;7500;57.698;11.986;2023-01-30T12:51:05;99324.47;;;7.83;100.00
14818;BME280;7500;57.698;11.986;2023-01-30T12:53:42;99301.25;;;7.64;100.00
14818;BME280;7500;57.698;11.986;2023-01-30T12:56:41;99321.84;;;7.83;100.00
14818;BME280;7500;57.698;11.986;2023-01-30T12:59:14;99330.59;;;7.84;100.00
14818;BME280;7500;57.698;11.986;2023-01-30T13:01:55;99332.38;;;7.83;100.00
14818;BME280;7500;57.698;11.986;2023-01-30T13:04:42;99340.16;;;7.85;100.00
14818;BME280;7500;57.698;11.986;2023-01-30T13:07:16;99340.81;;;7.88;100.00
14818;BME280;7500;57.698;11.986;2023-01-30T13:10:01;99357.50;;;7.87;100.00
14818;BME280;7500;57.698;11.986;2023-01-30T13:12:35;99365.75;;;7.95;100.00
14818;BME280;7500;57.698;11.986;2023-01-30T13:15:14;99372.91;;;7.93;100.00
14818;BME280;7500;57.698;11.986;2023-01-30T13:17:54;99369.53;;;7.91;100.00
14818;BME280;7500;57.698;11.986;2023-01-30T13:20:39;99372.53;;;7.85;100.00
14818;BME280;7500;57.698;11.986;2023-01-30T13:23:14;99392.69;;;7.99;100.00
14818;BME280;7500;57.698;11.986;2023-01-30T13:25:49;99393.72;;;7.96;100.00
14818;BME280;7500;57.698;11.986;2023-01-30T13:28:22;99403.13;;;8.00;100.00
14818;BME280;7500;57.698;11.986;2023-01-30T13:30:51;99416.34;;;7.99;100.00
14818;BME280;7500;57.698;11.986;2023-01-30T13:33:23;99411.94;;;7.99;100.00